sensor_id;sensor_type;location;lat;lon;timestamp;pressure;altitude;pressure_sealevel;temperature;humidity
28310;BME280;15571;50.974;13.936;2024-01-15T00:00:22;98272.59;;;5.12;100.00
28310;BME280;15571;50.974;13.936;2024-01-15T00:03:25;98280.31;;;5.19;100.00
28310;BME280;15571;50.974;13.936;2024-01-15T00:06:27;98279.47;;;5.15;100.00
28310;BME280;15571;50.974;13.936;2024-01-15T00:09:33;98274.22;;;5.21;100.00
28310;BME280;15571;50.974;13.936;2024-01-15T00:12:35;98264.78;;;5.16;100.00
28310;BME280;15571;50.974;13.936;2024-01-15T00:15:37;98260.44;;;5.16;100.00
28310;BME280;15571;50.974;13.936;2024-01-15T00:18:41;98251.78;;;5.17;100.00
28310;BME280;15571;50.974;13.936;2024-01-15T00:21:43;98264.81;;;5.12;100.00
28310;BME280;15571;50.974;13.936;2024-01-15T00:24:45;98270.91;;;5.10;100.00
28310;BME280;15571;50.974;13.936;2024-01-15T00:27:47;98270.97;;;5.05;100.00
28310;BME280;15571;50.974;13.936;2024-01-15T00:30:49;98263.97;;;5.12;100.00
28310;BME280;15571;50.974;13.936;2024-01-15T00:33:53;98263.16;;;5.08;100.00
28310;BME280;15571;50.974;13.936;2024-01-15T00:36:57;98262.31;;;5.06;100.00
28310;BME280;15571;50.974;13.936;2024-01-15T00:39:59;98258.06;;;5.02;100.00
28310;BME280;15571;50.974;13.936;2024-01-15T00:43:00;98260.72;;;4.99;100.00
28310;BME280;15571;50.974;13.936;2024-01-15T00:46:03;98254.69;;;4.97;100.00
28310;BME280;15571;50.974;13.936;2024-01-15T00:49:06;98256.53;;;4.89;100.00
28310;BME280;15571;50.974;13.936;2024-01-15T00:52:11;98246.16;;;4.89;100.00
28310;BME280;15571;50.974;13.936;2024-01-15T00:55:13;98245.22;;;4.93;100.00
28310;BME280;15571;50.974;13.936;2024-01-15T00:58:15;98248.03;;;4.77;100.00
28310;BME280;15571;50.974;13.936;2024-01-15T01:01:18;98239.31;;;4.81;100.00
28310;BME280;15571;50.974;13.936;2024-01-15T01:04:21;98233.97;;;4.94;100.00
28310;BME280;15571;50.974;13.936;2024-01-15T01:07:23;98235.59;;;5.01;100.00
28310;BME280;15571;50.974;13.936;2024-01-15T01:10:25;98240.09;;;4.88;100.00
28310;BME280;15571;50.974;13.936;2024-01-15T01:13:27;98227.03;;;4.96;100.00
28310;BME280;15571;50.974;13.936;2024-01-15T01:16:29;98222.00;;;4.87;100.00
28310;BME280;15571;50.974;13.936;2024-01-15T01:19:33;98218.41;;;4.94;100.00
28310;BME280;15571;50.974;13.936;2024-01-15T01:22:35;98223.69;;;4.88;100.00
28310;BME280;15571;50.974;13.936;2024-01-15T01:25:37;98225.34;;;4.92;100.00
28310;BME280;15571;50.974;13.936;2024-01-15T01:28:42;98220.25;;;4.87;100.00
28310;BME280;15571;50.974;13.936;2024-01-15T01:31:44;98221.03;;;4.92;100.00
28310;BME280;15571;50.974;13.936;2024-01-15T01:34:48;98216.66;;;4.96;100.00
28310;BME280;15571;50.974;13.936;2024-01-15T01:37:49;98216.69;;;4.93;100.00
28310;BME280;15571;50.974;13.936;2024-01-15T01:40:51;98209.75;;;4.95;100.00
28310;BME280;15571;50.974;13.936;2024-01-15T01:43:53;98209.81;;;4.92;100.00
28310;BME280;15571;50.974;13.936;2024-01-15T01:46:55;98202.88;;;4.94;100.00
28310;BME280;15571;50.974;13.936;2024-01-15T01:49:59;98199.38;;;4.95;100.00
28310;BME280;15571;50.974;13.936;2024-01-15T01:53:04;98184.81;;;4.88;100.00
28310;BME280;15571;50.974;13.936;2024-01-15T01:56:06;98186.69;;;4.78;100.00
28310;BME280;15571;50.974;13.936;2024-01-15T01:59:09;98189.09;;;4.90;100.00
28310;BME280;15571;50.974;13.936;2024-01-15T02:02:11;98184.75;;;4.92;100.00
28310;BME280;15571;50.974;13.936;2024-01-15T02:05:15;98182.13;;;4.94;100.00
28310;BME280;15571;50.974;13.936;2024-01-15T02:08:19;98187.34;;;4.91;100.00
28310;BME280;15571;50.974;13.936;2024-01-15T02:11:21;98187.41;;;4.88;100.00
28310;BME280;15571;50.974;13.936;2024-01-15T02:14:31;98191.00;;;4.77;100.00
28310;BME280;15571;50.974;13.936;2024-01-15T02:21:24;98180.53;;;4.83;100.00
28310;BME280;15571;50.974;13.936;2024-01-15T02:24:43;98171.09;;;4.81;100.00
28310;BME280;15571;50.974;13.936;2024-01-15T04:33:41;98102.75;;;4.27;100.00
28310;BME280;15571;50.974;13.936;2024-01-15T04:36:44;98082.31;;;4.07;100.00
28310;BME280;15571;50.974;13.936;2024-01-15T04:39:45;98087.66;;;3.95;100.00
28310;BME280;15571;50.974;13.936;2024-01-15T04:42:48;98085.81;;;4.03;100.00
28310;BME280;15571;50.974;13.936;2024-01-15T04:45:49;98096.31;;;3.95;100.00
28310;BME280;15571;50.974;13.936;2024-01-15T04:48:53;98102.19;;;4.05;100.00
28310;BME280;15571;50.974;13.936;2024-01-15T04:51:55;98119.56;;;3.97;100.00
28310;BME280;15571;50.974;13.936;2024-01-15T04:54:57;98096.00;;;4.18;100.00
28310;BME280;15571;50.974;13.936;2024-01-15T04:57:58;98104.88;;;3.97;100.00
28310;BME280;15571;50.974;13.936;2024-01-15T05:01:00;98109.94;;;4.08;100.00
28310;BME280;15571;50.974;13.936;2024-01-15T05:04:07;98120.47;;;3.94;100.00
28310;BME280;15571;50.974;13.936;2024-01-15T05:07:08;98131.63;;;3.98;100.00
28310;BME280;15571;50.974;13.936;2024-01-15T05:10:10;98121.44;;;3.85;100.00
28310;BME280;15571;50.974;13.936;2024-01-15T05:13:12;98122.19;;;3.95;100.00
28310;BME280;15571;50.974;13.936;2024-01-15T05:16:14;98136.97;;;3.87;100.00
28310;BME280;15571;50.974;13.936;2024-01-15T05:19:17;98133.59;;;3.80;100.00
28310;BME280;15571;50.974;13.936;2024-01-15T05:22:19;98147.41;;;3.79;100.00
28310;BME280;15571;50.974;13.936;2024-01-15T05:25:21;98141.34;;;3.80;100.00
28310;BME280;15571;50.974;13.936;2024-01-15T05:28:23;98142.16;;;3.82;100.00
28310;BME280;15571;50.974;13.936;2024-01-15T05:31:25;98135.41;;;3.70;100.00
28310;BME280;15571;50.974;13.936;2024-01-15T05:34:29;98139.56;;;3.84;100.00
28310;BME280;15571;50.974;13.936;2024-01-15T05:37:31;98145.81;;;3.67;100.00
28310;BME280;15571;50.974;13.936;2024-01-15T05:40:33;98149.81;;;3.93;100.00
28310;BME280;15571;50.974;13.936;2024-01-15T05:43:35;98136.16;;;3.79;100.00
28310;BME280;15571;50.974;13.936;2024-01-15T05:46:37;98155.91;;;3.89;100.00
28310;BME280;15571;50.974;13.936;2024-01-15T05:49:40;98132.91;;;3.64;100.00
28310;BME280;15571;50.974;13.936;2024-01-15T05:52:42;98139.88;;;3.56;100.00
28310;BME280;15571;50.974;13.936;2024-01-15T05:55:44;98137.22;;;3.62;100.00
28310;BME280;15571;50.974;13.936;2024-01-15T05:58:46;98137.19;;;3.64;100.00
28310;BME280;15571;50.974;13.936;2024-01-15T06:01:47;98145.78;;;3.69;100.00
28310;BME280;15571;50.974;13.936;2024-01-15T06:04:51;98157.94;;;3.61;100.00
28310;BME280;15571;50.974;13.936;2024-01-15T06:07:53;98144.91;;;3.70;100.00
28310;BME280;15571;50.974;13.936;2024-01-15T06:10:55;98138.91;;;3.65;100.00
28310;BME280;15571;50.974;13.936;2024-01-15T06:13:57;98157.78;;;3.73;100.00
28310;BME280;15571;50.974;13.936;2024-01-15T06:17:00;98150.06;;;3.71;100.00
28310;BME280;15571;50.974;13.936;2024-01-15T06:20:05;98144.00;;;3.74;100.00
28310;BME280;15571;50.974;13.936;2024-01-15T06:23:07;98141.44;;;3.72;100.00
28310;BME280;15571;50.974;13.936;2024-01-15T06:26:11;98125.06;;;3.72;100.00
28310;BME280;15571;50.974;13.936;2024-01-15T06:29:13;98127.66;;;3.72;100.00
28310;BME280;15571;50.974;13.936;2024-01-15T06:32:15;98112.75;;;3.88;100.00
28310;BME280;15571;50.974;13.936;2024-01-15T06:35:18;98118.97;;;3.76;100.00
28310;BME280;15571;50.974;13.936;2024-01-15T06:38:20;98113.88;;;3.70;100.00
28310;BME280;15571;50.974;13.936;2024-01-15T06:41:25;98114.72;;;3.72;100.00
28310;BME280;15571;50.974;13.936;2024-01-15T06:44:27;98117.09;;;3.87;100.00
28310;BME280;15571;50.974;13.936;2024-01-15T06:47:29;98128.22;;;3.96;100.00
28310;BME280;15571;50.974;13.936;2024-01-15T06:50:34;98117.28;;;3.70;100.00
28310;BME280;15571;50.974;13.936;2024-01-15T06:53:36;98127.81;;;3.55;100.00
28310;BME280;15571;50.974;13.936;2024-01-15T06:56:38;98118.34;;;3.54;100.00
28310;BME280;15571;50.974;13.936;2024-01-15T06:59:40;98126.91;;;3.61;100.00
28310;BME280;15571;50.974;13.936;2024-01-15T07:02:49;98121.69;;;3.64;100.00
28310;BME280;15571;50.974;13.936;2024-01-15T07:05:55;98114.88;;;3.56;100.00
28310;BME280;15571;50.974;13.936;2024-01-15T07:08:57;98120.75;;;3.71;100.00
28310;BME280;15571;50.974;13.936;2024-01-15T07:11:59;98107.66;;;3.85;100.00
28310;BME280;15571;50.974;13.936;2024-01-15T07:15:05;98119.78;;;3.81;100.00
28310;BME280;15571;50.974;13.936;2024-01-15T07:18:08;98126.72;;;3.76;100.00
28310;BME280;15571;50.974;13.936;2024-01-15T07:21:12;98124.97;;;3.78;100.00
28310;BME280;15571;50.974;13.936;2024-01-15T07:24:14;98122.31;;;3.83;100.00
28310;BME280;15571;50.974;13.936;2024-01-15T07:27:16;98129.19;;;3.85;100.00
28310;BME280;15571;50.974;13.936;2024-01-15T07:30:18;98137.09;;;3.73;100.00
28310;BME280;15571;50.974;13.936;2024-01-15T07:33:22;98152.72;;;3.64;100.00
28310;BME280;15571;50.974;13.936;2024-01-15T07:36:28;98155.28;;;3.67;100.00
28310;BME280;15571;50.974;13.936;2024-01-15T07:39:32;98177.53;;;3.83;100.00
28310;BME280;15571;50.974;13.936;2024-01-15T07:42:35;98157.78;;;3.76;100.00
28310;BME280;15571;50.974;13.936;2024-01-15T07:45:41;98151.84;;;3.65;100.00
28310;BME280;15571;50.974;13.936;2024-01-15T07:48:43;98158.78;;;3.63;100.00
28310;BME280;15571;50.974;13.936;2024-01-15T07:51:46;98163.94;;;3.67;100.00
28310;BME280;15571;50.974;13.936;2024-01-15T07:54:48;98156.69;;;3.96;100.00
28310;BME280;15571;50.974;13.936;2024-01-15T07:57:50;98142.94;;;3.89;100.00
28310;BME280;15571;50.974;13.936;2024-01-15T08:00:54;98153.28;;;3.92;100.00
28310;BME280;15571;50.974;13.936;2024-01-15T08:03:56;98146.28;;;4.00;100.00
28310;BME280;15571;50.974;13.936;2024-01-15T08:06:59;98152.38;;;3.96;100.00
28310;BME280;15571;50.974;13.936;2024-01-15T08:10:01;98147.19;;;3.95;100.00
28310;BME280;15571;50.974;13.936;2024-01-15T08:13:03;98153.09;;;4.06;100.00
28310;BME280;15571;50.974;13.936;2024-01-15T08:16:08;98138.41;;;4.08;100.00
28310;BME280;15571;50.974;13.936;2024-01-15T08:19:10;98131.63;;;3.98;100.00
28310;BME280;15571;50.974;13.936;2024-01-15T08:22:13;98137.72;;;3.95;100.00
28310;BME280;15571;50.974;13.936;2024-01-15T08:25:16;98140.19;;;4.04;100.00
28310;BME280;15571;50.974;13.936;2024-01-15T08:28:18;98153.94;;;4.11;100.00
28310;BME280;15571;50.974;13.936;2024-01-15T08:31:20;98155.66;;;4.09;100.00
28310;BME280;15571;50.974;13.936;2024-01-15T08:34:22;98158.25;;;4.09;100.00
28310;BME280;15571;50.974;13.936;2024-01-15T08:37:25;98162.59;;;4.07;100.00
28310;BME280;15571;50.974;13.936;2024-01-15T08:40:27;98174.44;;;4.27;100.00
28310;BME280;15571;50.974;13.936;2024-01-15T08:43:29;98163.41;;;4.11;100.00
28310;BME280;15571;50.974;13.936;2024-01-15T08:46:32;98163.34;;;4.15;100.00
28310;BME280;15571;50.974;13.936;2024-01-15T08:49:34;98159.06;;;4.13;100.00
28310;BME280;15571;50.974;13.936;2024-01-15T08:52:38;98161.72;;;4.07;100.00
28310;BME280;15571;50.974;13.936;2024-01-15T08:55:40;98159.00;;;4.17;100.00
28310;BME280;15571;50.974;13.936;2024-01-15T08:58:42;98162.34;;;4.26;100.00
28310;BME280;15571;50.974;13.936;2024-01-15T09:01:49;98155.72;;;4.04;100.00
28310;BME280;15571;50.974;13.936;2024-01-15T09:04:51;98176.22;;;4.21;100.00
28310;BME280;15571;50.974;13.936;2024-01-15T09:07:55;98170.25;;;4.16;100.00
28310;BME280;15571;50.974;13.936;2024-01-15T09:10:58;98166.78;;;4.17;100.00
28310;BME280;15571;50.974;13.936;2024-01-15T09:14:06;98150.31;;;4.21;100.00
28310;BME280;15571;50.974;13.936;2024-01-15T09:17:09;98165.94;;;4.15;100.00
28310;BME280;15571;50.974;13.936;2024-01-15T09:20:11;98165.69;;;4.34;100.00
28310;BME280;15571;50.974;13.936;2024-01-15T09:23:15;98169.91;;;4.43;100.00
28310;BME280;15571;50.974;13.936;2024-01-15T09:26:17;98176.03;;;4.37;100.00
28310;BME280;15571;50.974;13.936;2024-01-15T09:29:19;98174.91;;;4.57;100.00
28310;BME280;15571;50.974;13.936;2024-01-15T09:32:21;98186.16;;;4.52;100.00
28310;BME280;15571;50.974;13.936;2024-01-15T09:35:26;98178.19;;;4.66;100.00
28310;BME280;15571;50.974;13.936;2024-01-15T09:38:32;98183.25;;;4.77;100.00
28310;BME280;15571;50.974;13.936;2024-01-15T09:41:34;98202.06;;;4.90;100.00
28310;BME280;15571;50.974;13.936;2024-01-15T09:44:37;98193.38;;;4.93;100.00
28310;BME280;15571;50.974;13.936;2024-01-15T09:47:42;98192.53;;;4.91;100.00
28310;BME280;15571;50.974;13.936;2024-01-15T09:50:48;98172.63;;;4.94;100.00
28310;BME280;15571;50.974;13.936;2024-01-15T09:53:52;98191.50;;;5.03;100.00
28310;BME280;15571;50.974;13.936;2024-01-15T09:56:55;98181.94;;;5.06;100.00
28310;BME280;15571;50.974;13.936;2024-01-15T09:59:57;98187.69;;;5.24;100.00
28310;BME280;15571;50.974;13.936;2024-01-15T10:03:04;98170.41;;;5.23;100.00
28310;BME280;15571;50.974;13.936;2024-01-15T10:06:08;98166.19;;;5.17;100.00
28310;BME280;15571;50.974;13.936;2024-01-15T10:09:12;98156.19;;;5.45;100.00
28310;BME280;15571;50.974;13.936;2024-01-15T10:12:17;98155.34;;;5.43;100.00
28310;BME280;15571;50.974;13.936;2024-01-15T10:15:21;98160.59;;;5.40;100.00
28310;BME280;15571;50.974;13.936;2024-01-15T10:18:24;98160.22;;;5.62;100.00
28310;BME280;15571;50.974;13.936;2024-01-15T10:21:26;98152.63;;;5.51;100.00
28310;BME280;15571;50.974;13.936;2024-01-15T10:24:30;98145.03;;;5.40;100.00
28310;BME280;15571;50.974;13.936;2024-01-15T10:27:31;98154.66;;;5.35;100.00
28310;BME280;15571;50.974;13.936;2024-01-15T10:30:34;98147.44;;;5.50;100.00
28310;BME280;15571;50.974;13.936;2024-01-15T10:33:45;98139.03;;;5.38;100.00
28310;BME280;15571;50.974;13.936;2024-01-15T10:36:53;98128.66;;;5.38;100.00
28310;BME280;15571;50.974;13.936;2024-01-15T10:39:58;98139.13;;;5.32;100.00
28310;BME280;15571;50.974;13.936;2024-01-15T10:43:03;98143.78;;;5.61;100.00
28310;BME280;15571;50.974;13.936;2024-01-15T10:46:06;98123.88;;;5.62;100.00
28310;BME280;15571;50.974;13.936;2024-01-15T10:49:08;98127.34;;;5.61;100.00
28310;BME280;15571;50.974;13.936;2024-01-15T10:52:11;98129.13;;;5.59;100.00
28310;BME280;15571;50.974;13.936;2024-01-15T10:55:14;98132.31;;;5.73;100.00
28310;BME280;15571;50.974;13.936;2024-01-15T10:58:17;98127.00;;;5.80;100.00
28310;BME280;15571;50.974;13.936;2024-01-15T11:01:20;98129.78;;;5.70;100.00
28310;BME280;15571;50.974;13.936;2024-01-15T11:04:22;98123.41;;;5.87;100.00
28310;BME280;15571;50.974;13.936;2024-01-15T11:07:27;98125.13;;;5.86;100.00
28310;BME280;15571;50.974;13.936;2024-01-15T11:10:39;98115.84;;;5.74;100.00
28310;BME280;15571;50.974;13.936;2024-01-15T11:13:42;98137.75;;;6.06;100.00
28310;BME280;15571;50.974;13.936;2024-01-15T11:20:08;98122.47;;;6.33;100.00
28310;BME280;15571;50.974;13.936;2024-01-15T11:23:10;98119.38;;;6.16;100.00
28310;BME280;15571;50.974;13.936;2024-01-15T11:29:31;98112.38;;;5.74;100.00
28310;BME280;15571;50.974;13.936;2024-01-15T11:32:35;98123.47;;;5.84;100.00
28310;BME280;15571;50.974;13.936;2024-01-15T11:35:49;98115.72;;;5.81;100.00
28310;BME280;15571;50.974;13.936;2024-01-15T11:38:51;98107.16;;;5.77;100.00
28310;BME280;15571;50.974;13.936;2024-01-15T11:41:53;98113.31;;;5.71;100.00
28310;BME280;15571;50.974;13.936;2024-01-15T11:44:57;98114.84;;;5.82;100.00
28310;BME280;15571;50.974;13.936;2024-01-15T11:51:24;98108.13;;;5.71;100.00
28310;BME280;15571;50.974;13.936;2024-01-15T11:54:26;98102.69;;;5.84;100.00
28310;BME280;15571;50.974;13.936;2024-01-15T11:57:41;98099.00;;;5.94;100.00
28310;BME280;15571;50.974;13.936;2024-01-15T12:00:47;98093.72;;;6.00;100.00
28310;BME280;15571;50.974;13.936;2024-01-15T12:03:49;98087.84;;;5.90;100.00
28310;BME280;15571;50.974;13.936;2024-01-15T12:06:52;98105.66;;;5.65;100.00
28310;BME280;15571;50.974;13.936;2024-01-15T12:09:56;98106.84;;;5.92;100.00
28310;BME280;15571;50.974;13.936;2024-01-15T12:13:03;98105.13;;;5.91;100.00
28310;BME280;15571;50.974;13.936;2024-01-15T12:16:08;98115.31;;;6.02;100.00
28310;BME280;15571;50.974;13.936;2024-01-15T12:19:10;98105.22;;;5.87;100.00
28310;BME280;15571;50.974;13.936;2024-01-15T12:22:12;98104.50;;;5.79;100.00
28310;BME280;15571;50.974;13.936;2024-01-15T12:25:16;98106.94;;;5.86;100.00
28310;BME280;15571;50.974;13.936;2024-01-15T12:28:21;98116.38;;;5.92;100.00
28310;BME280;15571;50.974;13.936;2024-01-15T12:31:24;98106.72;;;5.55;100.00
28310;BME280;15571;50.974;13.936;2024-01-15T12:34:28;98107.38;;;5.66;100.00
28310;BME280;15571;50.974;13.936;2024-01-15T12:37:30;98104.50;;;5.79;100.00
28310;BME280;15571;50.974;13.936;2024-01-15T12:40:33;98103.81;;;5.70;100.00
28310;BME280;15571;50.974;13.936;2024-01-15T12:43:38;98104.88;;;5.60;100.00
28310;BME280;15571;50.974;13.936;2024-01-15T12:46:42;98107.38;;;5.66;100.00
28310;BME280;15571;50.974;13.936;2024-01-15T12:49:46;98093.97;;;5.42;100.00
28310;BME280;15571;50.974;13.936;2024-01-15T12:52:48;98097.88;;;5.65;100.00
28310;BME280;15571;50.974;13.936;2024-01-15T12:55:53;98097.97;;;5.59;100.00
28310;BME280;15571;50.974;13.936;2024-01-15T12:58:55;98108.72;;;5.84;100.00
28310;BME280;15571;50.974;13.936;2024-01-15T13:01:59;98107.19;;;5.75;100.00
28310;BME280;15571;50.974;13.936;2024-01-15T13:05:01;98104.69;;;5.69;100.00
28310;BME280;15571;50.974;13.936;2024-01-15T13:08:07;98111.69;;;5.67;100.00
28310;BME280;15571;50.974;13.936;2024-01-15T13:11:12;98112.59;;;5.63;100.00
28310;BME280;15571;50.974;13.936;2024-01-15T13:14:14;98105.66;;;5.64;100.00
28310;BME280;15571;50.974;13.936;2024-01-15T13:17:20;98111.13;;;5.51;100.00
28310;BME280;15571;50.974;13.936;2024-01-15T13:20:25;98101.56;;;5.53;100.00
28310;BME280;15571;50.974;13.936;2024-01-15T13:23:27;98108.53;;;5.50;100.00
28310;BME280;15571;50.974;13.936;2024-01-15T13:26:29;98112.00;;;5.49;100.00
28310;BME280;15571;50.974;13.936;2024-01-15T13:29:31;98112.13;;;5.42;100.00
28310;BME280;15571;50.974;13.936;2024-01-15T13:32:35;98117.28;;;5.45;100.00
28310;BME280;15571;50.974;13.936;2024-01-15T13:35:37;98115.84;;;5.29;100.00
28310;BME280;15571;50.974;13.936;2024-01-15T13:38:40;98125.16;;;5.41;100.00
28310;BME280;15571;50.974;13.936;2024-01-15T13:41:42;98115.78;;;5.32;100.00
28310;BME280;15571;50.974;13.936;2024-01-15T13:44:45;98117.63;;;5.25;100.00
28310;BME280;15571;50.974;13.936;2024-01-15T13:47:48;98128.56;;;5.41;100.00
28310;BME280;15571;50.974;13.936;2024-01-15T13:50:51;98127.69;;;5.42;100.00
28310;BME280;15571;50.974;13.936;2024-01-15T13:53:53;98131.25;;;5.38;100.00
28310;BME280;15571;50.974;13.936;2024-01-15T13:56:59;98139.50;;;5.10;100.00
28310;BME280;15571;50.974;13.936;2024-01-15T14:00:02;98159.13;;;5.25;100.00
28310;BME280;15571;50.974;13.936;2024-01-15T14:03:13;98151.41;;;5.22;100.00
28310;BME280;15571;50.974;13.936;2024-01-15T14:06:18;98154.16;;;5.11;100.00
28310;BME280;15571;50.974;13.936;2024-01-15T14:09:20;98166.19;;;5.19;100.00
28310;BME280;15571;50.974;13.936;2024-01-15T14:12:22;98176.63;;;5.12;100.00
28310;BME280;15571;50.974;13.936;2024-01-15T14:15:24;98167.28;;;5.04;100.00
28310;BME280;15571;50.974;13.936;2024-01-15T14:18:29;98178.00;;;4.82;100.00
28310;BME280;15571;50.974;13.936;2024-01-15T14:21:31;98166.72;;;4.85;100.00
28310;BME280;15571;50.974;13.936;2024-01-15T14:24:33;98181.38;;;4.86;100.00
28310;BME280;15571;50.974;13.936;2024-01-15T14:27:35;98172.91;;;4.74;100.00
28310;BME280;15571;50.974;13.936;2024-01-15T14:30:38;98175.47;;;4.77;100.00
28310;BME280;15571;50.974;13.936;2024-01-15T14:33:44;98174.63;;;4.75;100.00
28310;BME280;15571;50.974;13.936;2024-01-15T14:36:46;98186.03;;;4.62;100.00
28310;BME280;15571;50.974;13.936;2024-01-15T14:39:50;98187.75;;;4.63;100.00
28310;BME280;15571;50.974;13.936;2024-01-15T14:42:52;98180.81;;;4.65;100.00
28310;BME280;15571;50.974;13.936;2024-01-15T14:45:57;98191.38;;;4.51;100.00
28310;BME280;15571;50.974;13.936;2024-01-15T14:49:01;98206.06;;;4.52;100.00
28310;BME280;15571;50.974;13.936;2024-01-15T14:52:04;98195.59;;;4.60;100.00
28310;BME280;15571;50.974;13.936;2024-01-15T14:55:07;98202.66;;;4.48;100.00
28310;BME280;15571;50.974;13.936;2024-01-15T14:58:09;98201.97;;;4.34;100.00
28310;BME280;15571;50.974;13.936;2024-01-15T15:01:11;98209.88;;;4.21;100.00
28310;BME280;15571;50.974;13.936;2024-01-15T15:04:15;98207.22;;;4.28;100.00
28310;BME280;15571;50.974;13.936;2024-01-15T15:07:19;98201.19;;;4.29;100.00
28310;BME280;15571;50.974;13.936;2024-01-15T15:10:21;98207.28;;;4.21;100.00
28310;BME280;15571;50.974;13.936;2024-01-15T15:13:23;98212.44;;;4.25;100.00
28310;BME280;15571;50.974;13.936;2024-01-15T15:16:27;98219.38;;;4.24;100.00
28310;BME280;15571;50.974;13.936;2024-01-15T15:19:31;98210.84;;;4.14;100.00
28310;BME280;15571;50.974;13.936;2024-01-15T15:22:33;98221.25;;;4.11;100.00
28310;BME280;15571;50.974;13.936;2024-01-15T15:25:35;98223.00;;;4.06;100.00
28310;BME280;15571;50.974;13.936;2024-01-15T15:28:37;98223.00;;;4.09;100.00
28310;BME280;15571;50.974;13.936;2024-01-15T15:31:39;98228.41;;;3.87;100.00
28310;BME280;15571;50.974;13.936;2024-01-15T15:34:43;98235.13;;;4.04;100.00
28310;BME280;15571;50.974;13.936;2024-01-15T15:37:45;98235.25;;;3.93;100.00
28310;BME280;15571;50.974;13.936;2024-01-15T15:40:58;98232.47;;;4.09;100.00
28310;BME280;15571;50.974;13.936;2024-01-15T15:44:01;98235.31;;;3.85;100.00
28310;BME280;15571;50.974;13.936;2024-01-15T15:47:03;98236.84;;;4.05;100.00
28310;BME280;15571;50.974;13.936;2024-01-15T15:50:07;98238.78;;;3.86;100.00
28310;BME280;15571;50.974;13.936;2024-01-15T15:53:12;98237.84;;;3.90;100.00
28310;BME280;15571;50.974;13.936;2024-01-15T15:56:14;98249.84;;;3.99;100.00
28310;BME280;15571;50.974;13.936;2024-01-15T15:59:17;98261.00;;;4.04;100.00
28310;BME280;15571;50.974;13.936;2024-01-15T16:02:21;98254.09;;;4.06;100.00
28310;BME280;15571;50.974;13.936;2024-01-15T16:05:28;98256.63;;;4.11;100.00
28310;BME280;15571;50.974;13.936;2024-01-15T16:08:30;98262.75;;;4.02;100.00
28310;BME280;15571;50.974;13.936;2024-01-15T16:11:32;98255.81;;;4.04;100.00
28310;BME280;15571;50.974;13.936;2024-01-15T16:14:34;98250.75;;;3.95;100.00
28310;BME280;15571;50.974;13.936;2024-01-15T16:17:36;98255.81;;;4.07;100.00
28310;BME280;15571;50.974;13.936;2024-01-15T16:20:40;98260.97;;;4.07;100.00
28310;BME280;15571;50.974;13.936;2024-01-15T16:23:42;98267.22;;;3.91;100.00
28310;BME280;15571;50.974;13.936;2024-01-15T16:26:44;98259.25;;;4.09;100.00
28310;BME280;15571;50.974;13.936;2024-01-15T16:29:51;98273.84;;;4.15;100.00
28310;BME280;15571;50.974;13.936;2024-01-15T16:32:53;98273.91;;;4.09;100.00
28310;BME280;15571;50.974;13.936;2024-01-15T16:35:57;98271.53;;;3.88;100.00
28310;BME280;15571;50.974;13.936;2024-01-15T16:39:00;98272.25;;;4.04;100.00
28310;BME280;15571;50.974;13.936;2024-01-15T16:42:07;98271.56;;;3.82;100.00
28310;BME280;15571;50.974;13.936;2024-01-15T16:45:09;98287.03;;;3.92;100.00
28310;BME280;15571;50.974;13.936;2024-01-15T16:48:14;98287.78;;;4.01;100.00
28310;BME280;15571;50.974;13.936;2024-01-15T16:51:18;98275.63;;;4.11;100.00
28310;BME280;15571;50.974;13.936;2024-01-15T16:54:20;98277.44;;;4.01;100.00
28310;BME280;15571;50.974;13.936;2024-01-15T16:57:22;98281.69;;;4.10;100.00
28310;BME280;15571;50.974;13.936;2024-01-15T17:00:24;98289.41;;;4.12;100.00
28310;BME280;15571;50.974;13.936;2024-01-15T17:03:27;98288.72;;;3.96;100.00
28310;BME280;15571;50.974;13.936;2024-01-15T17:06:30;98296.50;;;3.94;100.00
28310;BME280;15571;50.974;13.936;2024-01-15T17:09:32;98301.69;;;3.91;100.00
28310;BME280;15571;50.974;13.936;2024-01-15T17:12:34;98300.84;;;3.89;100.00
28310;BME280;15571;50.974;13.936;2024-01-15T17:15:36;98288.69;;;3.99;100.00
28310;BME280;15571;50.974;13.936;2024-01-15T17:18:38;98289.59;;;3.95;100.00
28310;BME280;15571;50.974;13.936;2024-01-15T17:21:42;98293.97;;;3.89;100.00
28310;BME280;15571;50.974;13.936;2024-01-15T17:24:44;98294.03;;;3.80;100.00
28310;BME280;15571;50.974;13.936;2024-01-15T17:27:46;98300.06;;;3.81;100.00
28310;BME280;15571;50.974;13.936;2024-01-15T17:30:48;98294.88;;;3.82;100.00
28310;BME280;15571;50.974;13.936;2024-01-15T17:33:50;98294.03;;;3.80;100.00
28310;BME280;15571;50.974;13.936;2024-01-15T17:36:54;98301.75;;;3.83;100.00
28310;BME280;15571;50.974;13.936;2024-01-15T17:39:56;98304.41;;;3.80;100.00
28310;BME280;15571;50.974;13.936;2024-01-15T17:42:57;98294.06;;;3.77;100.00
28310;BME280;15571;50.974;13.936;2024-01-15T17:46:02;98298.31;;;3.83;100.00
28310;BME280;15571;50.974;13.936;2024-01-15T17:49:10;98293.09;;;3.89;100.00
28310;BME280;15571;50.974;13.936;2024-01-15T17:52:16;98298.31;;;3.86;100.00
28310;BME280;15571;50.974;13.936;2024-01-15T17:55:19;98300.06;;;3.84;100.00
28310;BME280;15571;50.974;13.936;2024-01-15T17:58:21;98304.44;;;3.76;100.00
28310;BME280;15571;50.974;13.936;2024-01-15T18:01:26;98312.06;;;3.89;100.00
28310;BME280;15571;50.974;13.936;2024-01-15T18:04:27;98312.13;;;3.82;100.00
28310;BME280;15571;50.974;13.936;2024-01-15T18:07:34;98323.31;;;3.85;100.00
28310;BME280;15571;50.974;13.936;2024-01-15T18:10:40;98326.75;;;3.87;100.00
28310;BME280;15571;50.974;13.936;2024-01-15T18:13:42;98327.81;;;3.66;100.00
28310;BME280;15571;50.974;13.936;2024-01-15T18:16:44;98326.94;;;3.67;100.00